createdAt,value
2023-04-10T00:02:28.203Z,9.13
2023-04-10T00:04:56.478Z,8.80
2023-04-10T00:07:24.699Z,9.00
2023-04-10T00:09:54.283Z,8.50
2023-04-10T00:12:22.596Z,8.67
2023-04-10T00:14:50.850Z,8.67
2023-04-10T00:17:19.021Z,8.80
2023-04-10T00:19:47.232Z,8.87
2023-04-10T00:22:15.592Z,8.03
2023-04-10T00:24:43.733Z,8.70
2023-04-10T00:27:14.086Z,8.40
2023-04-10T00:29:42.304Z,9.00
2023-04-10T00:32:10.715Z,8.50
2023-04-10T00:34:38.896Z,8.03
2023-04-10T00:37:07.265Z,8.53
2023-04-10T00:39:35.522Z,8.30
2023-04-10T00:42:04.148Z,8.23
2023-04-10T00:44:37.248Z,8.40
2023-04-10T00:47:05.943Z,9.33
2023-04-10T00:49:34.119Z,8.80
2023-04-10T00:52:02.297Z,8.17
2023-04-10T00:54:30.801Z,8.97
2023-04-10T00:56:59.773Z,8.40
2023-04-10T00:59:27.971Z,8.73
2023-04-10T01:01:57.828Z,8.93
2023-04-10T01:04:26.755Z,8.77
2023-04-10T01:07:00.582Z,9.30
2023-04-10T01:09:35.012Z,8.13
2023-04-10T01:12:06.669Z,8.53
2023-04-10T01:14:38.365Z,8.87
2023-04-10T01:17:09.341Z,8.37
2023-04-10T01:19:48.080Z,9.30
2023-04-10T01:22:16.990Z,9.03
2023-04-10T01:24:52.146Z,9.27
2023-04-10T01:27:29.376Z,9.00
2023-04-10T01:30:02.948Z,8.73
2023-04-10T01:32:32.325Z,9.03
2023-04-10T01:35:02.036Z,9.27
2023-04-10T01:37:33.536Z,9.53
2023-04-10T01:40:03.688Z,9.17
2023-04-10T01:42:33.393Z,9.30
2023-04-10T01:45:03.682Z,9.80
2023-04-10T01:47:32.617Z,9.63
2023-04-10T01:50:01.828Z,10.23
2023-04-10T01:52:30.490Z,9.27
2023-04-10T01:54:59.389Z,10.17
2023-04-10T01:57:30.557Z,9.73
2023-04-10T01:59:58.850Z,10.10
2023-04-10T02:02:31.970Z,9.53
2023-04-10T02:05:01.891Z,10.40
2023-04-10T02:07:32.583Z,9.73
2023-04-10T02:10:04.190Z,10.40
2023-04-10T02:12:33.679Z,10.60
2023-04-10T02:15:03.300Z,10.50
2023-04-10T02:17:33.821Z,10.43
2023-04-10T02:20:02.440Z,10.23
2023-04-10T02:22:30.736Z,10.83
2023-04-10T02:24:59.198Z,10.17
2023-04-10T02:27:31.228Z,10.70
2023-04-10T02:29:59.469Z,10.50
2023-04-10T02:32:27.804Z,10.00
2023-04-10T02:34:57.434Z,10.70
2023-04-10T02:37:25.708Z,10.30
2023-04-10T02:39:54.968Z,10.73
2023-04-10T02:42:23.202Z,10.87
2023-04-10T02:44:51.427Z,11.03
2023-04-10T02:47:19.660Z,10.87
2023-04-10T02:49:48.272Z,10.60
2023-04-10T02:52:18.131Z,10.27
2023-04-10T02:54:46.321Z,10.53
2023-04-10T02:57:14.555Z,10.80
2023-04-10T02:59:43.451Z,10.60
2023-04-10T03:02:11.771Z,10.27
2023-04-10T03:04:40.038Z,11.10
2023-04-10T03:07:08.288Z,10.33
2023-04-10T03:09:37.845Z,10.70
2023-04-10T03:12:06.262Z,11.47
2023-04-10T03:14:34.446Z,10.27
2023-04-10T03:17:02.582Z,10.57
2023-04-10T03:19:30.809Z,10.00
2023-04-10T03:21:59.056Z,9.53
2023-04-10T03:24:27.256Z,9.70
2023-04-10T03:26:56.866Z,9.70
2023-04-10T03:29:24.995Z,9.50
2023-04-10T03:31:53.240Z,9.67
2023-04-10T03:34:21.517Z,9.47
2023-04-10T03:36:49.723Z,9.53
2023-04-10T03:39:17.861Z,9.93
2023-04-10T03:41:46.153Z,9.37
2023-04-10T03:44:15.627Z,8.50
2023-04-10T03:46:43.863Z,7.93
2023-04-10T03:49:12.106Z,8.70
2023-04-10T03:51:40.457Z,8.27
2023-04-10T03:54:08.630Z,8.57
2023-04-10T03:56:36.844Z,8.57
2023-04-10T03:59:04.972Z,8.73
2023-04-10T04:01:34.583Z,8.20
2023-04-10T04:04:02.935Z,8.00
2023-04-10T04:06:31.894Z,8.20
2023-04-10T04:09:00.039Z,7.33
2023-04-10T04:11:28.533Z,8.37
2023-04-10T04:13:56.689Z,7.80
2023-04-10T04:16:24.912Z,8.23
2023-04-10T04:18:54.491Z,7.57
2023-04-10T04:21:22.625Z,7.70
2023-04-10T04:23:50.758Z,7.47
2023-04-10T04:26:18.931Z,7.60
2023-04-10T04:28:47.313Z,7.60
2023-04-10T04:31:16.229Z,7.77
2023-04-10T04:33:44.389Z,7.70
2023-04-10T04:36:13.926Z,7.67
2023-04-10T04:38:42.078Z,7.03
2023-04-10T04:41:10.235Z,7.07
2023-04-10T04:43:38.382Z,7.07
2023-04-10T04:46:06.847Z,7.30
2023-04-10T04:48:35.315Z,7.10
2023-04-10T04:51:03.597Z,6.93
2023-04-10T04:53:33.111Z,7.40
2023-04-10T04:56:01.334Z,6.77
2023-04-10T04:58:29.482Z,7.23
2023-04-10T05:00:57.726Z,7.40
2023-04-10T05:03:26.088Z,7.00
2023-04-10T05:05:54.432Z,7.13
2023-04-10T05:08:22.578Z,7.60
2023-04-10T05:10:52.332Z,7.47
2023-04-10T05:13:20.561Z,6.70
2023-04-10T05:15:48.733Z,7.07
2023-04-10T05:18:19.822Z,6.97
2023-04-10T05:20:48.445Z,7.07
2023-04-10T05:23:16.752Z,6.93
2023-04-10T05:25:44.933Z,6.43
2023-04-10T05:28:14.480Z,7.60
2023-04-10T05:30:42.700Z,7.33
2023-04-10T05:33:10.892Z,8.33
2023-04-10T05:35:39.074Z,7.30
2023-04-10T05:38:07.298Z,7.37
2023-04-10T05:40:35.478Z,7.17
2023-04-10T05:43:03.638Z,6.57
2023-04-10T05:45:33.185Z,7.00
2023-04-10T05:48:01.411Z,6.70
2023-04-10T05:50:30.663Z,6.57
2023-04-10T05:52:58.974Z,6.30
2023-04-10T05:55:27.158Z,6.47
2023-04-10T05:57:55.384Z,6.30
2023-04-10T06:00:23.563Z,6.33
2023-04-10T06:02:53.125Z,7.30
2023-04-10T06:05:21.588Z,6.33
2023-04-10T06:07:49.837Z,6.90
2023-04-10T06:10:18.021Z,7.03
2023-04-10T06:12:46.662Z,6.67
2023-04-10T06:15:14.802Z,7.23
2023-04-10T06:17:44.545Z,6.43
2023-04-10T06:20:14.466Z,6.70
2023-04-10T06:22:42.693Z,7.10
2023-04-10T06:25:11.366Z,6.50
2023-04-10T06:27:39.649Z,6.67
2023-04-10T06:30:08.616Z,6.47
2023-04-10T06:32:36.861Z,6.47
2023-04-10T06:35:05.307Z,6.40
2023-04-10T06:37:34.945Z,6.10
2023-04-10T06:40:06.781Z,6.60
2023-04-10T06:42:35.064Z,6.30
2023-04-10T06:45:03.497Z,6.27
2023-04-10T06:47:32.104Z,6.13
2023-04-10T06:50:00.362Z,6.40
2023-04-10T06:52:28.551Z,6.50
2023-04-10T06:54:58.048Z,6.33
2023-04-10T06:57:26.276Z,6.80
2023-04-10T06:59:54.408Z,6.47
2023-04-10T07:02:22.682Z,6.33
2023-04-10T07:04:51.730Z,6.13
2023-04-10T07:07:19.917Z,6.37
2023-04-10T07:09:48.132Z,6.30
2023-04-10T07:12:17.666Z,6.30
2023-04-10T07:14:45.904Z,5.83
2023-04-10T07:17:14.086Z,6.30
2023-04-10T07:19:42.229Z,6.30
2023-04-10T07:22:10.566Z,6.30
2023-04-10T07:24:38.878Z,6.57
2023-04-10T07:27:07.050Z,6.43
2023-04-10T07:29:36.598Z,6.77
2023-04-10T07:32:04.908Z,6.07
2023-04-10T07:34:33.338Z,6.43
2023-04-10T07:37:01.594Z,6.93
2023-04-10T07:39:29.866Z,6.70
2023-04-10T07:41:58.078Z,6.80
2023-04-10T07:44:28.643Z,6.57
2023-04-10T07:46:58.932Z,7.03
2023-04-10T07:49:27.229Z,6.50
2023-04-10T07:51:55.491Z,6.43
2023-04-10T07:54:23.841Z,6.47
2023-04-10T07:56:53.561Z,6.60
2023-04-10T07:59:21.781Z,7.40
2023-04-10T08:01:50.062Z,6.57
2023-04-10T08:04:19.776Z,6.90
2023-04-10T08:06:49.430Z,7.07
2023-04-10T08:09:17.627Z,6.83
2023-04-10T08:11:45.769Z,6.80
2023-04-10T08:14:14.227Z,7.10
2023-04-10T08:16:46.748Z,6.73
2023-04-10T08:19:14.906Z,6.97
2023-04-10T08:21:44.501Z,7.33
2023-04-10T08:24:12.727Z,6.87
2023-04-10T08:26:40.915Z,6.80
2023-04-10T08:29:09.120Z,6.83
2023-04-10T08:31:37.265Z,6.73
2023-04-10T08:34:05.626Z,7.20
2023-04-10T08:36:33.941Z,6.83
2023-04-10T08:39:03.453Z,6.77
2023-04-10T08:41:31.620Z,6.83
2023-04-10T08:43:59.876Z,6.90
2023-04-10T08:46:28.146Z,6.80
2023-04-10T08:48:59.646Z,7.03
2023-04-10T08:51:29.863Z,7.18
2023-04-10T08:54:00.370Z,6.77
2023-04-10T08:56:29.916Z,7.20
2023-04-10T08:58:58.108Z,6.70
2023-04-10T09:01:26.924Z,7.10
2023-04-10T09:03:55.444Z,7.33
2023-04-10T09:06:23.921Z,6.77
2023-04-10T09:08:52.105Z,7.13
2023-04-10T09:11:20.549Z,6.80
2023-04-10T09:13:51.025Z,7.77
2023-04-10T09:16:19.231Z,6.73
2023-04-10T09:18:48.457Z,7.30
2023-04-10T09:21:17.695Z,6.63
2023-04-10T09:23:46.294Z,6.40
2023-04-10T09:26:25.074Z,6.70
2023-04-10T09:28:59.264Z,6.90
2023-04-10T09:31:31.901Z,6.47
2023-04-10T09:34:10.097Z,6.93
2023-04-10T09:36:38.485Z,6.37
2023-04-10T09:39:07.011Z,6.90
2023-04-10T09:41:35.344Z,6.53
2023-04-10T09:44:11.826Z,6.50
2023-04-10T09:46:40.009Z,6.40
2023-04-10T09:49:09.438Z,7.30
2023-04-10T09:51:39.257Z,6.37
2023-04-10T09:54:07.507Z,6.30
2023-04-10T09:56:38.374Z,6.20
2023-04-10T09:59:07.902Z,6.30
2023-04-10T10:01:39.188Z,6.07
2023-04-10T10:04:07.455Z,5.97
2023-04-10T10:06:35.900Z,6.70
2023-04-10T10:09:04.852Z,6.63
2023-04-10T10:11:34.540Z,6.37
2023-04-10T10:14:04.779Z,6.30
2023-04-10T10:16:36.177Z,6.10
2023-04-10T10:19:07.948Z,5.77
2023-04-10T10:21:36.633Z,6.20
2023-04-10T10:24:05.019Z,5.90
2023-04-10T10:26:34.845Z,6.80
2023-04-10T10:29:05.483Z,6.37
2023-04-10T10:31:37.199Z,6.10
2023-04-10T10:34:09.019Z,6.27
2023-04-10T10:36:37.702Z,6.00
2023-04-10T10:39:15.918Z,6.20
2023-04-10T10:41:46.576Z,6.03
2023-04-10T10:44:16.245Z,5.97
2023-04-10T10:46:48.695Z,5.93
2023-04-10T10:49:18.220Z,5.87
2023-04-10T10:51:47.726Z,6.07
2023-04-10T10:54:36.605Z,5.53
2023-04-10T10:57:27.190Z,5.77
2023-04-10T10:59:57.189Z,5.87
2023-04-10T11:02:25.654Z,5.33
2023-04-10T11:04:55.443Z,5.80
2023-04-10T11:07:23.642Z,5.83
2023-04-10T11:09:52.858Z,5.77
2023-04-10T11:12:21.957Z,5.50
2023-04-10T11:14:58.877Z,5.40
2023-04-10T11:17:45.786Z,5.53
2023-04-10T11:20:15.628Z,5.40
2023-04-10T11:22:58.728Z,5.60
2023-04-10T11:25:47.420Z,6.07
2023-04-10T11:28:35.510Z,5.70
2023-04-10T11:31:15.926Z,5.83
2023-04-10T11:33:44.130Z,5.37
2023-04-10T11:36:15.566Z,5.40
2023-04-10T11:38:55.097Z,5.50
2023-04-10T11:41:23.596Z,5.93
2023-04-10T11:43:53.097Z,5.27
2023-04-10T11:46:21.884Z,5.67
2023-04-10T11:48:54.122Z,5.07
2023-04-10T11:51:24.030Z,5.43
2023-04-10T11:53:52.255Z,5.80
2023-04-10T11:56:22.453Z,5.27
2023-04-10T11:58:53.990Z,5.63
2023-04-10T12:01:23.137Z,4.87
2023-04-10T12:03:51.499Z,5.23
2023-04-10T12:06:20.420Z,4.90
2023-04-10T12:08:51.094Z,5.40
2023-04-10T12:11:20.216Z,5.93
2023-04-10T12:13:48.785Z,5.63
2023-04-10T12:16:17.093Z,5.20
2023-04-10T12:18:45.763Z,5.73
2023-04-10T12:21:13.981Z,5.30
2023-04-10T12:23:42.324Z,5.50
2023-04-10T12:26:13.343Z,5.70
2023-04-10T12:28:42.366Z,6.20
2023-04-10T12:31:11.084Z,6.37
2023-04-10T12:33:39.334Z,7.00
2023-04-10T12:36:07.875Z,6.80
2023-04-10T12:38:43.204Z,6.53
2023-04-10T12:41:13.066Z,7.00
2023-04-10T12:43:42.380Z,6.87
2023-04-10T12:46:11.766Z,7.20
2023-04-10T12:48:39.963Z,7.20
2023-04-10T12:51:08.468Z,7.07
2023-04-10T12:53:45.143Z,7.23
2023-04-10T12:56:15.148Z,7.20
2023-04-10T12:58:43.632Z,7.47
2023-04-10T13:01:12.917Z,7.60
2023-04-10T13:03:41.478Z,7.63
2023-04-10T13:06:10.190Z,6.80
2023-04-10T13:08:38.369Z,7.43
2023-04-10T13:11:06.948Z,7.70
2023-04-10T13:13:36.476Z,7.67
2023-04-10T13:16:04.664Z,7.50
2023-04-10T13:18:32.857Z,7.30
2023-04-10T13:21:01.004Z,7.20
2023-04-10T13:23:29.116Z,8.03
2023-04-10T13:25:58.998Z,7.80
2023-04-10T13:28:27.172Z,8.30
2023-04-10T13:30:58.619Z,6.93
2023-04-10T13:33:26.792Z,8.33
2023-04-10T13:35:55.004Z,7.73
2023-04-10T13:38:23.178Z,8.13
2023-04-10T13:40:51.417Z,8.63
2023-04-10T13:43:19.567Z,8.10
2023-04-10T13:45:47.731Z,8.87
2023-04-10T13:48:22.291Z,8.77
2023-04-10T13:50:55.471Z,8.20
2023-04-10T13:53:23.629Z,8.07
2023-04-10T13:55:51.769Z,8.43
2023-04-10T13:58:19.954Z,6.60
2023-04-10T14:00:48.175Z,7.63
2023-04-10T14:03:17.850Z,7.33
2023-04-10T14:05:46.188Z,8.13
2023-04-10T14:08:15.781Z,8.23
2023-04-10T14:10:44.030Z,8.10
2023-04-10T14:13:12.198Z,8.17
2023-04-10T14:15:40.522Z,8.40
2023-04-10T14:18:08.850Z,8.97
2023-04-10T14:20:38.508Z,9.87
2023-04-10T14:23:07.051Z,13.80
2023-04-10T14:25:35.185Z,12.27
2023-04-10T14:28:03.349Z,14.77
2023-04-10T14:30:32.776Z,15.27
2023-04-10T14:33:01.032Z,15.90
2023-04-10T14:35:29.360Z,17.30
2023-04-10T14:37:58.839Z,18.70
2023-04-10T14:40:27.169Z,28.37
2023-04-10T14:42:55.450Z,20.40
2023-04-10T14:45:23.671Z,22.63
2023-04-10T14:47:51.925Z,24.90
2023-04-10T14:50:20.417Z,30.30
2023-04-10T14:52:49.531Z,31.23
2023-04-10T14:55:19.182Z,48.40
2023-04-10T14:57:47.336Z,57.53
2023-04-10T15:00:15.644Z,42.50
2023-04-10T15:02:45.220Z,59.33
2023-04-10T15:05:13.606Z,61.17
2023-04-10T15:07:41.816Z,71.93
2023-04-10T15:10:10.580Z,87.50
2023-04-10T15:12:40.088Z,88.17
2023-04-10T15:15:08.963Z,82.83
2023-04-10T15:17:37.097Z,98.13
2023-04-10T15:20:05.860Z,99.80
2023-04-10T15:22:34.153Z,105.43
2023-04-10T15:25:02.448Z,112.27
2023-04-10T15:27:30.617Z,132.10
2023-04-10T15:30:00.250Z,123.20
2023-04-10T15:32:28.734Z,153.37
2023-04-10T15:34:56.923Z,148.77
2023-04-10T15:37:25.359Z,106.57
2023-04-10T15:39:53.594Z,149.40
2023-04-10T15:42:21.764Z,178.53
2023-04-10T15:44:49.977Z,141.43
2023-04-10T15:47:19.464Z,158.30
2023-04-10T15:49:47.654Z,116.27
2023-04-10T15:52:15.841Z,169.27
2023-04-10T15:54:43.985Z,147.43
2023-04-10T15:57:12.133Z,170.10
2023-04-10T15:59:40.300Z,183.67
2023-04-10T16:02:08.526Z,165.60
2023-04-10T16:04:38.224Z,157.17
2023-04-10T16:07:06.696Z,151.87
2023-04-10T16:09:34.821Z,144.90
2023-04-10T16:12:03.112Z,151.10
2023-04-10T16:14:31.279Z,219.07
2023-04-10T16:16:59.498Z,200.30
2023-04-10T16:19:27.650Z,221.27
2023-04-10T16:21:57.620Z,153.97
2023-04-10T16:24:25.782Z,161.23
2023-04-10T16:26:54.424Z,186.17
2023-04-10T16:29:22.560Z,261.17
2023-04-10T16:31:50.948Z,247.77
2023-04-10T16:34:19.184Z,219.63
2023-04-10T16:36:47.305Z,223.00
2023-04-10T16:39:16.895Z,213.50
2023-04-10T16:41:45.316Z,188.53
2023-04-10T16:44:13.610Z,163.03
2023-04-10T16:46:41.871Z,136.70
2023-04-10T16:49:10.201Z,132.37
2023-04-10T16:51:38.399Z,126.33
2023-04-10T16:54:06.651Z,91.37
2023-04-10T16:56:36.240Z,86.07
2023-04-10T16:59:04.460Z,106.33
2023-04-10T17:01:35.103Z,94.47
2023-04-10T17:04:03.420Z,92.60
2023-04-10T17:06:31.670Z,95.77
2023-04-10T17:08:59.793Z,96.43
2023-04-10T17:11:28.015Z,83.83
2023-04-10T17:13:57.540Z,60.67
2023-04-10T17:16:25.775Z,55.87
2023-04-10T17:18:54.279Z,55.60
2023-04-10T17:21:22.702Z,38.30
2023-04-10T17:23:50.847Z,31.73
2023-04-10T17:26:19.016Z,33.17
2023-04-10T17:28:47.364Z,27.93
2023-04-10T17:31:17.190Z,33.00
2023-04-10T17:33:45.758Z,25.27
2023-04-10T17:36:14.492Z,23.73
2023-04-10T17:38:43.636Z,21.30
2023-04-10T17:41:12.105Z,19.07
2023-04-10T17:43:40.639Z,15.67
2023-04-10T17:46:08.984Z,12.33
2023-04-10T17:48:39.034Z,11.30
2023-04-10T17:51:07.523Z,10.30
2023-04-10T17:53:35.821Z,16.77
2023-04-10T17:56:04.169Z,10.50
2023-04-10T17:58:32.454Z,10.27
2023-04-10T18:01:00.734Z,9.63
2023-04-10T18:03:28.997Z,8.43
2023-04-10T18:05:58.893Z,8.57
2023-04-10T18:08:27.084Z,8.00
2023-04-10T18:10:55.270Z,7.37
2023-04-10T18:13:23.656Z,7.10
2023-04-10T18:15:51.870Z,6.00
2023-04-10T18:18:20.112Z,5.23
2023-04-10T18:20:48.358Z,3.93
2023-04-10T18:23:17.871Z,5.03
2023-04-10T18:25:53.203Z,5.33
2023-04-10T18:28:21.351Z,3.87
2023-04-10T18:30:49.589Z,3.93
2023-04-10T18:33:22.305Z,4.13
2023-04-10T18:35:50.595Z,3.80
2023-04-10T18:38:20.251Z,3.77
2023-04-10T18:40:48.516Z,3.77
2023-04-10T18:43:16.697Z,3.97
2023-04-10T18:45:44.976Z,3.90
2023-04-10T18:48:13.167Z,3.57
2023-04-10T18:50:41.298Z,4.07
2023-04-10T18:53:09.516Z,4.40
2023-04-10T18:55:39.033Z,4.00
2023-04-10T18:58:07.365Z,3.93
2023-04-10T19:00:35.835Z,4.20
2023-04-10T19:03:04.901Z,4.00
2023-04-10T19:05:33.525Z,5.27
2023-04-10T19:08:04.524Z,4.27
2023-04-10T19:10:33.142Z,5.97
2023-04-10T19:13:02.873Z,4.83
2023-04-10T19:15:31.385Z,4.30
2023-04-10T19:17:59.888Z,4.87
2023-04-10T19:20:49.774Z,5.10
2023-04-10T19:23:16.767Z,4.47
2023-04-10T19:25:45.242Z,5.30
2023-04-10T19:28:14.971Z,4.53
2023-04-10T19:30:43.193Z,5.10
2023-04-10T19:33:11.598Z,5.80
2023-04-10T19:35:40.031Z,5.27
2023-04-10T19:38:08.294Z,4.70
2023-04-10T19:40:37.435Z,5.17
2023-04-10T19:43:05.665Z,6.77
2023-04-10T19:45:37.837Z,6.07
2023-04-10T19:48:07.137Z,7.83
2023-04-10T19:50:35.385Z,7.00
2023-04-10T19:53:03.568Z,6.60
2023-04-10T19:55:32.387Z,7.50
2023-04-10T19:58:00.719Z,7.43
2023-04-10T20:00:28.950Z,6.67
2023-04-10T20:02:58.834Z,7.10
2023-04-10T20:05:27.200Z,6.90
2023-04-10T20:07:55.394Z,6.53
2023-04-10T20:10:23.707Z,6.53
2023-04-10T20:12:51.940Z,5.73
2023-04-10T20:15:21.164Z,5.43
2023-04-10T20:17:49.416Z,5.30
2023-04-10T20:20:19.010Z,6.30
2023-04-10T20:22:47.158Z,6.23
2023-04-10T20:25:15.409Z,6.40
2023-04-10T20:27:43.674Z,6.13
2023-04-10T20:30:12.153Z,5.67
2023-04-10T20:32:40.356Z,5.20
2023-04-10T20:35:09.210Z,4.53
2023-04-10T20:37:38.978Z,4.10
2023-04-10T20:40:07.863Z,4.60
2023-04-10T20:42:36.053Z,5.00
2023-04-10T20:45:04.476Z,4.63
2023-04-10T20:47:32.664Z,4.90
2023-04-10T20:50:01.031Z,4.50
2023-04-10T20:52:29.175Z,4.93
2023-04-10T20:54:58.700Z,5.00
2023-04-10T20:57:26.941Z,5.23
2023-04-10T20:59:55.064Z,4.63
2023-04-10T21:02:23.467Z,4.40
2023-04-10T21:04:52.461Z,5.03
2023-04-10T21:07:20.695Z,4.37
2023-04-10T21:09:48.868Z,4.13
2023-04-10T21:12:18.398Z,4.80
2023-04-10T21:14:48.089Z,3.57
2023-04-10T21:17:16.573Z,4.83
2023-04-10T21:19:44.830Z,4.70
2023-04-10T21:22:13.052Z,4.63
2023-04-10T21:24:41.268Z,4.17
2023-04-10T21:27:09.495Z,3.30
2023-04-10T21:29:39.111Z,3.33
2023-04-10T21:32:07.447Z,3.03
2023-04-10T21:34:36.024Z,3.60
2023-04-10T21:37:04.231Z,2.97
2023-04-10T21:39:32.391Z,2.80
2023-04-10T21:42:00.569Z,1.80
2023-04-10T21:44:28.721Z,2.27
2023-04-10T21:46:58.215Z,1.80
2023-04-10T21:49:26.374Z,1.87
2023-04-10T21:51:54.559Z,1.60
2023-04-10T21:54:22.735Z,2.03
2023-04-10T21:56:50.927Z,2.10
2023-04-10T21:59:19.154Z,2.63
2023-04-10T22:01:47.490Z,2.23
2023-04-10T22:04:17.229Z,3.13
2023-04-10T22:06:45.506Z,3.13
2023-04-10T22:09:13.948Z,3.10
2023-04-10T22:11:42.271Z,3.10
2023-04-10T22:14:17.205Z,2.53
2023-04-10T22:16:47.042Z,3.43
2023-04-10T22:19:16.625Z,3.40
2023-04-10T22:21:44.830Z,3.60
2023-04-10T22:24:12.972Z,3.57
2023-04-10T22:26:42.141Z,3.90
2023-04-10T22:29:10.409Z,3.40
2023-04-10T22:31:38.551Z,3.03
2023-04-10T22:34:06.718Z,3.33
2023-04-10T22:36:36.282Z,3.77
2023-04-10T22:39:04.838Z,2.97
2023-04-10T22:41:33.361Z,2.60
2023-04-10T22:44:01.581Z,2.20
2023-04-10T22:46:29.965Z,2.50
2023-04-10T22:48:58.457Z,2.23
2023-04-10T22:51:26.803Z,2.13
2023-04-10T22:53:56.346Z,2.60
2023-04-10T22:56:26.607Z,2.53
2023-04-10T22:58:55.177Z,2.67
2023-04-10T23:01:23.447Z,3.13
2023-04-10T23:03:53.811Z,3.57
2023-04-10T23:06:22.233Z,3.10
2023-04-10T23:08:50.352Z,3.50
2023-04-10T23:11:19.862Z,4.40
2023-04-10T23:13:48.726Z,3.60
2023-04-10T23:16:17.039Z,4.70
2023-04-10T23:18:45.231Z,4.40
2023-04-10T23:21:13.424Z,4.20
2023-04-10T23:23:41.578Z,4.43
2023-04-10T23:26:11.258Z,5.30
2023-04-10T23:28:40.751Z,3.90
2023-04-10T23:31:10.050Z,4.33
2023-04-10T23:33:38.307Z,5.67
2023-04-10T23:36:06.942Z,5.30
2023-04-10T23:38:35.123Z,4.57
2023-04-10T23:41:03.779Z,5.03
2023-04-10T23:43:32.004Z,3.63
2023-04-10T23:46:01.714Z,3.47
2023-04-10T23:48:29.907Z,4.00
2023-04-10T23:51:05.060Z,3.93
2023-04-10T23:53:33.279Z,3.60
2023-04-10T23:56:01.528Z,3.23
2023-04-10T23:58:29.723Z,3.77
